sensor_id;sensor_type;location;lat;lon;timestamp;P1;durP1;ratioP1;P2;durP2;ratioP2
56830;SDS011;42713;42.676;23.352;2024-01-16T00:00:33;15.30;;;7.20;;
56830;SDS011;42713;42.676;23.352;2024-01-16T00:02:59;15.93;;;8.00;;
56830;SDS011;42713;42.676;23.352;2024-01-16T00:05:25;20.70;;;9.13;;
56830;SDS011;42713;42.676;23.352;2024-01-16T00:07:50;17.83;;;8.13;;
56830;SDS011;42713;42.676;23.352;2024-01-16T00:10:16;15.05;;;7.75;;
56830;SDS011;42713;42.676;23.352;2024-01-16T00:12:42;16.48;;;7.75;;
56830;SDS011;42713;42.676;23.352;2024-01-16T00:15:07;19.38;;;7.45;;
56830;SDS011;42713;42.676;23.352;2024-01-16T00:17:34;19.55;;;8.00;;
56830;SDS011;42713;42.676;23.352;2024-01-16T00:20:00;16.58;;;7.57;;
56830;SDS011;42713;42.676;23.352;2024-01-16T00:22:26;17.95;;;7.70;;
56830;SDS011;42713;42.676;23.352;2024-01-16T00:24:52;18.17;;;7.40;;
56830;SDS011;42713;42.676;23.352;2024-01-16T00:27:18;19.52;;;7.72;;
56830;SDS011;42713;42.676;23.352;2024-01-16T00:29:43;15.88;;;8.00;;
56830;SDS011;42713;42.676;23.352;2024-01-16T00:32:09;16.70;;;8.07;;
56830;SDS011;42713;42.676;23.352;2024-01-16T00:34:34;15.15;;;7.55;;
56830;SDS011;42713;42.676;23.352;2024-01-16T00:37:00;18.15;;;8.18;;
56830;SDS011;42713;42.676;23.352;2024-01-16T00:39:25;19.13;;;7.85;;
56830;SDS011;42713;42.676;23.352;2024-01-16T00:41:51;17.55;;;8.82;;
56830;SDS011;42713;42.676;23.352;2024-01-16T00:44:16;20.90;;;8.90;;
56830;SDS011;42713;42.676;23.352;2024-01-16T00:46:41;21.88;;;9.38;;
56830;SDS011;42713;42.676;23.352;2024-01-16T00:49:07;19.42;;;9.05;;
56830;SDS011;42713;42.676;23.352;2024-01-16T00:51:33;22.50;;;11.25;;
56830;SDS011;42713;42.676;23.352;2024-01-16T00:53:58;18.98;;;9.25;;
56830;SDS011;42713;42.676;23.352;2024-01-16T00:56:24;22.17;;;10.02;;
56830;SDS011;42713;42.676;23.352;2024-01-16T00:58:51;19.15;;;10.15;;
56830;SDS011;42713;42.676;23.352;2024-01-16T01:01:19;22.13;;;9.32;;
56830;SDS011;42713;42.676;23.352;2024-01-16T01:03:44;20.98;;;9.27;;
56830;SDS011;42713;42.676;23.352;2024-01-16T01:06:10;18.70;;;9.23;;
56830;SDS011;42713;42.676;23.352;2024-01-16T01:08:36;19.98;;;9.23;;
56830;SDS011;42713;42.676;23.352;2024-01-16T01:11:02;21.00;;;9.75;;
56830;SDS011;42713;42.676;23.352;2024-01-16T01:13:28;17.92;;;9.57;;
56830;SDS011;42713;42.676;23.352;2024-01-16T01:15:53;16.67;;;8.48;;
56830;SDS011;42713;42.676;23.352;2024-01-16T01:18:19;22.92;;;9.52;;
56830;SDS011;42713;42.676;23.352;2024-01-16T01:20:45;20.63;;;9.48;;
56830;SDS011;42713;42.676;23.352;2024-01-16T01:23:10;16.65;;;8.40;;
56830;SDS011;42713;42.676;23.352;2024-01-16T01:25:36;17.45;;;8.48;;
56830;SDS011;42713;42.676;23.352;2024-01-16T01:28:01;21.70;;;8.40;;
56830;SDS011;42713;42.676;23.352;2024-01-16T01:30:27;19.10;;;8.52;;
56830;SDS011;42713;42.676;23.352;2024-01-16T01:32:52;21.98;;;8.93;;
56830;SDS011;42713;42.676;23.352;2024-01-16T01:35:18;20.00;;;9.63;;
56830;SDS011;42713;42.676;23.352;2024-01-16T01:37:45;19.67;;;8.75;;
56830;SDS011;42713;42.676;23.352;2024-01-16T01:40:11;17.58;;;9.20;;
56830;SDS011;42713;42.676;23.352;2024-01-16T01:42:37;19.23;;;9.13;;
56830;SDS011;42713;42.676;23.352;2024-01-16T01:45:05;17.95;;;9.43;;
56830;SDS011;42713;42.676;23.352;2024-01-16T01:47:32;19.75;;;9.27;;
56830;SDS011;42713;42.676;23.352;2024-01-16T01:49:57;19.33;;;9.25;;
56830;SDS011;42713;42.676;23.352;2024-01-16T01:52:23;20.05;;;9.13;;
56830;SDS011;42713;42.676;23.352;2024-01-16T01:54:49;18.77;;;8.73;;
56830;SDS011;42713;42.676;23.352;2024-01-16T01:57:16;18.20;;;9.25;;
56830;SDS011;42713;42.676;23.352;2024-01-16T01:59:43;19.60;;;9.07;;
56830;SDS011;42713;42.676;23.352;2024-01-16T02:02:08;18.85;;;9.57;;
56830;SDS011;42713;42.676;23.352;2024-01-16T02:04:36;21.65;;;9.02;;
56830;SDS011;42713;42.676;23.352;2024-01-16T02:07:02;19.23;;;9.18;;
56830;SDS011;42713;42.676;23.352;2024-01-16T02:09:29;18.73;;;7.80;;
56830;SDS011;42713;42.676;23.352;2024-01-16T02:11:54;18.48;;;8.75;;
56830;SDS011;42713;42.676;23.352;2024-01-16T02:14:20;19.55;;;8.90;;
56830;SDS011;42713;42.676;23.352;2024-01-16T02:16:45;17.90;;;8.55;;
56830;SDS011;42713;42.676;23.352;2024-01-16T02:19:10;17.20;;;7.53;;
56830;SDS011;42713;42.676;23.352;2024-01-16T02:21:37;16.17;;;7.97;;
56830;SDS011;42713;42.676;23.352;2024-01-16T02:24:08;15.02;;;7.35;;
56830;SDS011;42713;42.676;23.352;2024-01-16T02:26:35;16.07;;;7.47;;
56830;SDS011;42713;42.676;23.352;2024-01-16T02:29:01;17.13;;;7.85;;
56830;SDS011;42713;42.676;23.352;2024-01-16T02:31:27;17.67;;;8.40;;
56830;SDS011;42713;42.676;23.352;2024-01-16T02:33:55;16.38;;;7.10;;
56830;SDS011;42713;42.676;23.352;2024-01-16T02:36:20;16.23;;;6.35;;
56830;SDS011;42713;42.676;23.352;2024-01-16T02:38:46;14.90;;;6.85;;
56830;SDS011;42713;42.676;23.352;2024-01-16T02:41:15;15.90;;;6.88;;
56830;SDS011;42713;42.676;23.352;2024-01-16T02:43:41;15.57;;;7.28;;
56830;SDS011;42713;42.676;23.352;2024-01-16T02:46:07;13.65;;;6.43;;
56830;SDS011;42713;42.676;23.352;2024-01-16T02:48:36;15.30;;;7.05;;
56830;SDS011;42713;42.676;23.352;2024-01-16T02:51:02;16.75;;;7.35;;
56830;SDS011;42713;42.676;23.352;2024-01-16T02:53:28;14.27;;;6.90;;
56830;SDS011;42713;42.676;23.352;2024-01-16T02:55:55;15.07;;;6.80;;
56830;SDS011;42713;42.676;23.352;2024-01-16T02:58:23;15.55;;;7.25;;
56830;SDS011;42713;42.676;23.352;2024-01-16T03:00:49;14.55;;;7.03;;
56830;SDS011;42713;42.676;23.352;2024-01-16T03:03:16;13.55;;;6.80;;
56830;SDS011;42713;42.676;23.352;2024-01-16T03:05:42;16.13;;;7.75;;
56830;SDS011;42713;42.676;23.352;2024-01-16T03:08:07;15.07;;;7.57;;
56830;SDS011;42713;42.676;23.352;2024-01-16T03:10:33;17.77;;;8.18;;
56830;SDS011;42713;42.676;23.352;2024-01-16T03:12:58;16.88;;;8.02;;
56830;SDS011;42713;42.676;23.352;2024-01-16T03:15:24;22.33;;;8.38;;
56830;SDS011;42713;42.676;23.352;2024-01-16T03:17:49;13.48;;;6.55;;
56830;SDS011;42713;42.676;23.352;2024-01-16T03:20:16;16.33;;;6.47;;
56830;SDS011;42713;42.676;23.352;2024-01-16T03:22:43;11.02;;;3.97;;
56830;SDS011;42713;42.676;23.352;2024-01-16T03:25:28;12.15;;;4.50;;
56830;SDS011;42713;42.676;23.352;2024-01-16T03:27:53;9.52;;;4.40;;
56830;SDS011;42713;42.676;23.352;2024-01-16T03:30:19;9.20;;;4.40;;
56830;SDS011;42713;42.676;23.352;2024-01-16T03:32:44;9.27;;;4.10;;
56830;SDS011;42713;42.676;23.352;2024-01-16T03:35:09;8.40;;;4.00;;
56830;SDS011;42713;42.676;23.352;2024-01-16T03:37:35;8.00;;;3.67;;
56830;SDS011;42713;42.676;23.352;2024-01-16T03:40:03;7.63;;;3.78;;
56830;SDS011;42713;42.676;23.352;2024-01-16T03:42:29;7.97;;;3.30;;
56830;SDS011;42713;42.676;23.352;2024-01-16T03:44:55;7.65;;;3.63;;
56830;SDS011;42713;42.676;23.352;2024-01-16T03:47:20;8.10;;;3.75;;
56830;SDS011;42713;42.676;23.352;2024-01-16T03:49:46;6.15;;;2.70;;
56830;SDS011;42713;42.676;23.352;2024-01-16T03:52:12;7.85;;;2.67;;
56830;SDS011;42713;42.676;23.352;2024-01-16T03:54:37;8.07;;;3.22;;
56830;SDS011;42713;42.676;23.352;2024-01-16T03:57:03;7.35;;;2.85;;
56830;SDS011;42713;42.676;23.352;2024-01-16T03:59:28;8.25;;;3.78;;
56830;SDS011;42713;42.676;23.352;2024-01-16T04:01:53;6.90;;;2.88;;
56830;SDS011;42713;42.676;23.352;2024-01-16T04:04:19;5.65;;;2.20;;
56830;SDS011;42713;42.676;23.352;2024-01-16T04:06:57;6.60;;;2.97;;
56830;SDS011;42713;42.676;23.352;2024-01-16T04:09:22;6.50;;;2.47;;
56830;SDS011;42713;42.676;23.352;2024-01-16T04:11:51;6.75;;;2.78;;
56830;SDS011;42713;42.676;23.352;2024-01-16T04:14:16;7.47;;;2.90;;
56830;SDS011;42713;42.676;23.352;2024-01-16T04:16:42;6.95;;;2.75;;
56830;SDS011;42713;42.676;23.352;2024-01-16T04:19:07;5.45;;;2.50;;
56830;SDS011;42713;42.676;23.352;2024-01-16T04:21:33;6.35;;;2.65;;
56830;SDS011;42713;42.676;23.352;2024-01-16T04:23:58;4.60;;;2.00;;
56830;SDS011;42713;42.676;23.352;2024-01-16T04:26:24;5.00;;;2.17;;
56830;SDS011;42713;42.676;23.352;2024-01-16T04:28:50;5.43;;;2.22;;
56830;SDS011;42713;42.676;23.352;2024-01-16T04:31:15;4.05;;;1.77;;
56830;SDS011;42713;42.676;23.352;2024-01-16T04:33:42;4.78;;;2.00;;
56830;SDS011;42713;42.676;23.352;2024-01-16T04:36:08;5.20;;;1.88;;
56830;SDS011;42713;42.676;23.352;2024-01-16T04:38:34;4.82;;;1.63;;
56830;SDS011;42713;42.676;23.352;2024-01-16T04:41:03;4.13;;;1.88;;
56830;SDS011;42713;42.676;23.352;2024-01-16T04:43:29;4.65;;;1.90;;
56830;SDS011;42713;42.676;23.352;2024-01-16T04:45:54;4.63;;;1.90;;
56830;SDS011;42713;42.676;23.352;2024-01-16T04:48:20;4.13;;;1.70;;
56830;SDS011;42713;42.676;23.352;2024-01-16T04:50:45;4.55;;;2.08;;
56830;SDS011;42713;42.676;23.352;2024-01-16T04:53:11;4.28;;;1.80;;
56830;SDS011;42713;42.676;23.352;2024-01-16T04:55:36;5.63;;;1.90;;
56830;SDS011;42713;42.676;23.352;2024-01-16T04:58:02;4.75;;;1.73;;
56830;SDS011;42713;42.676;23.352;2024-01-16T05:00:28;5.32;;;1.85;;
56830;SDS011;42713;42.676;23.352;2024-01-16T05:02:53;5.75;;;1.80;;
56830;SDS011;42713;42.676;23.352;2024-01-16T05:05:19;4.32;;;1.63;;
56830;SDS011;42713;42.676;23.352;2024-01-16T05:07:44;4.15;;;1.60;;
56830;SDS011;42713;42.676;23.352;2024-01-16T05:10:10;3.67;;;1.55;;
56830;SDS011;42713;42.676;23.352;2024-01-16T05:12:42;3.83;;;1.50;;
56830;SDS011;42713;42.676;23.352;2024-01-16T05:15:07;2.70;;;1.40;;
56830;SDS011;42713;42.676;23.352;2024-01-16T05:17:34;5.35;;;1.92;;
56830;SDS011;42713;42.676;23.352;2024-01-16T05:19:59;4.85;;;1.83;;
56830;SDS011;42713;42.676;23.352;2024-01-16T05:22:29;4.35;;;1.60;;
56830;SDS011;42713;42.676;23.352;2024-01-16T05:24:54;4.53;;;1.40;;
56830;SDS011;42713;42.676;23.352;2024-01-16T05:27:20;5.07;;;1.67;;
56830;SDS011;42713;42.676;23.352;2024-01-16T05:29:45;7.50;;;1.55;;
56830;SDS011;42713;42.676;23.352;2024-01-16T05:32:11;5.20;;;1.77;;
56830;SDS011;42713;42.676;23.352;2024-01-16T05:34:38;4.00;;;1.60;;
56830;SDS011;42713;42.676;23.352;2024-01-16T05:37:03;2.95;;;1.30;;
56830;SDS011;42713;42.676;23.352;2024-01-16T05:39:29;5.10;;;1.80;;
56830;SDS011;42713;42.676;23.352;2024-01-16T05:41:54;3.90;;;1.25;;
56830;SDS011;42713;42.676;23.352;2024-01-16T05:44:20;4.20;;;1.63;;
56830;SDS011;42713;42.676;23.352;2024-01-16T05:46:45;5.82;;;1.60;;
56830;SDS011;42713;42.676;23.352;2024-01-16T05:49:10;4.38;;;1.70;;
56830;SDS011;42713;42.676;23.352;2024-01-16T05:51:45;6.07;;;1.70;;
56830;SDS011;42713;42.676;23.352;2024-01-16T05:54:11;3.50;;;1.45;;
56830;SDS011;42713;42.676;23.352;2024-01-16T05:56:36;5.57;;;1.70;;
56830;SDS011;42713;42.676;23.352;2024-01-16T05:59:02;3.80;;;1.50;;
56830;SDS011;42713;42.676;23.352;2024-01-16T06:01:27;3.20;;;1.50;;
56830;SDS011;42713;42.676;23.352;2024-01-16T06:03:53;3.10;;;1.45;;
56830;SDS011;42713;42.676;23.352;2024-01-16T06:06:18;3.63;;;1.40;;
56830;SDS011;42713;42.676;23.352;2024-01-16T06:08:44;3.70;;;1.52;;
56830;SDS011;42713;42.676;23.352;2024-01-16T06:11:29;4.50;;;1.83;;
56830;SDS011;42713;42.676;23.352;2024-01-16T06:13:56;3.40;;;1.50;;
56830;SDS011;42713;42.676;23.352;2024-01-16T06:16:22;4.40;;;1.70;;
56830;SDS011;42713;42.676;23.352;2024-01-16T06:21:33;4.57;;;1.60;;
56830;SDS011;42713;42.676;23.352;2024-01-16T06:23:58;3.20;;;1.25;;
56830;SDS011;42713;42.676;23.352;2024-01-16T06:26:24;3.35;;;1.65;;
56830;SDS011;42713;42.676;23.352;2024-01-16T06:28:49;4.38;;;1.63;;
56830;SDS011;42713;42.676;23.352;2024-01-16T06:31:15;4.07;;;1.58;;
56830;SDS011;42713;42.676;23.352;2024-01-16T06:33:41;4.63;;;1.75;;
56830;SDS011;42713;42.676;23.352;2024-01-16T06:36:07;4.00;;;1.48;;
56830;SDS011;42713;42.676;23.352;2024-01-16T06:38:32;5.55;;;1.70;;
56830;SDS011;42713;42.676;23.352;2024-01-16T06:40:58;3.45;;;1.38;;
56830;SDS011;42713;42.676;23.352;2024-01-16T06:43:23;3.72;;;1.48;;
56830;SDS011;42713;42.676;23.352;2024-01-16T06:45:49;2.78;;;1.27;;
56830;SDS011;42713;42.676;23.352;2024-01-16T06:48:15;4.10;;;1.40;;
56830;SDS011;42713;42.676;23.352;2024-01-16T06:50:41;4.88;;;1.48;;
56830;SDS011;42713;42.676;23.352;2024-01-16T06:53:06;5.28;;;1.65;;
56830;SDS011;42713;42.676;23.352;2024-01-16T06:55:32;4.65;;;1.58;;
56830;SDS011;42713;42.676;23.352;2024-01-16T06:57:57;4.72;;;1.50;;
56830;SDS011;42713;42.676;23.352;2024-01-16T07:00:25;7.45;;;1.88;;
56830;SDS011;42713;42.676;23.352;2024-01-16T07:02:52;5.43;;;2.00;;
56830;SDS011;42713;42.676;23.352;2024-01-16T07:05:19;5.05;;;1.98;;
56830;SDS011;42713;42.676;23.352;2024-01-16T07:07:45;5.43;;;1.90;;
56830;SDS011;42713;42.676;23.352;2024-01-16T07:10:10;6.85;;;2.08;;
56830;SDS011;42713;42.676;23.352;2024-01-16T07:12:43;4.57;;;1.85;;
56830;SDS011;42713;42.676;23.352;2024-01-16T07:15:12;4.35;;;1.70;;
56830;SDS011;42713;42.676;23.352;2024-01-16T07:17:39;4.50;;;1.58;;
56830;SDS011;42713;42.676;23.352;2024-01-16T07:20:04;4.50;;;1.80;;
56830;SDS011;42713;42.676;23.352;2024-01-16T07:22:30;5.68;;;1.98;;
56830;SDS011;42713;42.676;23.352;2024-01-16T07:24:56;4.53;;;1.65;;
56830;SDS011;42713;42.676;23.352;2024-01-16T07:27:21;2.85;;;1.52;;
56830;SDS011;42713;42.676;23.352;2024-01-16T07:29:47;3.55;;;1.42;;
56830;SDS011;42713;42.676;23.352;2024-01-16T07:32:12;3.60;;;1.50;;
56830;SDS011;42713;42.676;23.352;2024-01-16T07:34:38;3.67;;;1.50;;
56830;SDS011;42713;42.676;23.352;2024-01-16T07:37:03;3.05;;;1.30;;
56830;SDS011;42713;42.676;23.352;2024-01-16T07:39:28;3.13;;;1.35;;
56830;SDS011;42713;42.676;23.352;2024-01-16T07:41:54;3.85;;;1.80;;
56830;SDS011;42713;42.676;23.352;2024-01-16T07:44:19;3.30;;;1.50;;
56830;SDS011;42713;42.676;23.352;2024-01-16T07:46:45;5.05;;;1.60;;
56830;SDS011;42713;42.676;23.352;2024-01-16T07:49:10;3.65;;;1.70;;
56830;SDS011;42713;42.676;23.352;2024-01-16T07:51:36;7.22;;;2.05;;
56830;SDS011;42713;42.676;23.352;2024-01-16T07:54:05;3.92;;;1.50;;
56830;SDS011;42713;42.676;23.352;2024-01-16T07:56:32;3.08;;;1.40;;
56830;SDS011;42713;42.676;23.352;2024-01-16T07:58:59;4.32;;;1.52;;
56830;SDS011;42713;42.676;23.352;2024-01-16T08:01:24;6.05;;;1.70;;
56830;SDS011;42713;42.676;23.352;2024-01-16T08:03:50;4.63;;;1.65;;
56830;SDS011;42713;42.676;23.352;2024-01-16T08:06:15;4.57;;;1.55;;
56830;SDS011;42713;42.676;23.352;2024-01-16T08:08:41;4.28;;;1.55;;
56830;SDS011;42713;42.676;23.352;2024-01-16T08:11:06;4.20;;;1.58;;
56830;SDS011;42713;42.676;23.352;2024-01-16T08:13:32;4.63;;;1.60;;
56830;SDS011;42713;42.676;23.352;2024-01-16T08:15:58;3.40;;;1.40;;
56830;SDS011;42713;42.676;23.352;2024-01-16T08:18:25;4.30;;;1.83;;
56830;SDS011;42713;42.676;23.352;2024-01-16T08:20:50;5.35;;;1.65;;
56830;SDS011;42713;42.676;23.352;2024-01-16T08:23:16;4.78;;;1.77;;
56830;SDS011;42713;42.676;23.352;2024-01-16T08:25:41;5.75;;;1.70;;
56830;SDS011;42713;42.676;23.352;2024-01-16T08:28:07;4.45;;;1.63;;
56830;SDS011;42713;42.676;23.352;2024-01-16T08:30:32;5.93;;;1.92;;
56830;SDS011;42713;42.676;23.352;2024-01-16T08:32:59;4.30;;;1.67;;
56830;SDS011;42713;42.676;23.352;2024-01-16T08:35:25;3.22;;;1.48;;
56830;SDS011;42713;42.676;23.352;2024-01-16T08:37:50;3.95;;;1.70;;
56830;SDS011;42713;42.676;23.352;2024-01-16T08:40:16;4.38;;;1.77;;
56830;SDS011;42713;42.676;23.352;2024-01-16T08:42:42;5.18;;;1.83;;
56830;SDS011;42713;42.676;23.352;2024-01-16T08:45:08;4.43;;;1.70;;
56830;SDS011;42713;42.676;23.352;2024-01-16T08:47:34;4.25;;;1.70;;
56830;SDS011;42713;42.676;23.352;2024-01-16T08:49:59;6.22;;;1.50;;
56830;SDS011;42713;42.676;23.352;2024-01-16T08:52:25;6.93;;;1.60;;
56830;SDS011;42713;42.676;23.352;2024-01-16T08:54:50;4.22;;;1.65;;
56830;SDS011;42713;42.676;23.352;2024-01-16T08:57:16;4.93;;;1.95;;
56830;SDS011;42713;42.676;23.352;2024-01-16T08:59:44;4.45;;;1.75;;
56830;SDS011;42713;42.676;23.352;2024-01-16T09:02:10;8.20;;;2.20;;
56830;SDS011;42713;42.676;23.352;2024-01-16T09:04:35;6.20;;;1.98;;
56830;SDS011;42713;42.676;23.352;2024-01-16T09:07:02;5.00;;;1.85;;
56830;SDS011;42713;42.676;23.352;2024-01-16T09:09:29;7.13;;;1.92;;
56830;SDS011;42713;42.676;23.352;2024-01-16T09:11:55;4.20;;;1.73;;
56830;SDS011;42713;42.676;23.352;2024-01-16T09:14:23;6.05;;;2.15;;
56830;SDS011;42713;42.676;23.352;2024-01-16T09:16:48;5.65;;;2.10;;
56830;SDS011;42713;42.676;23.352;2024-01-16T09:19:14;4.20;;;1.83;;
56830;SDS011;42713;42.676;23.352;2024-01-16T09:21:39;8.23;;;2.10;;
56830;SDS011;42713;42.676;23.352;2024-01-16T09:24:04;6.93;;;2.03;;
56830;SDS011;42713;42.676;23.352;2024-01-16T09:26:30;6.65;;;2.20;;
56830;SDS011;42713;42.676;23.352;2024-01-16T09:28:56;8.32;;;2.72;;
56830;SDS011;42713;42.676;23.352;2024-01-16T09:31:22;7.10;;;2.17;;
56830;SDS011;42713;42.676;23.352;2024-01-16T09:33:48;5.03;;;1.92;;
56830;SDS011;42713;42.676;23.352;2024-01-16T09:36:14;8.38;;;1.95;;
56830;SDS011;42713;42.676;23.352;2024-01-16T09:38:40;7.03;;;2.33;;
56830;SDS011;42713;42.676;23.352;2024-01-16T09:41:06;7.03;;;2.25;;
56830;SDS011;42713;42.676;23.352;2024-01-16T09:43:31;7.65;;;2.00;;
56830;SDS011;42713;42.676;23.352;2024-01-16T09:46:00;5.68;;;1.98;;
56830;SDS011;42713;42.676;23.352;2024-01-16T09:48:27;4.55;;;1.73;;
56830;SDS011;42713;42.676;23.352;2024-01-16T09:50:55;6.35;;;1.85;;
56830;SDS011;42713;42.676;23.352;2024-01-16T09:53:21;7.25;;;1.70;;
56830;SDS011;42713;42.676;23.352;2024-01-16T09:55:47;3.65;;;1.50;;
56830;SDS011;42713;42.676;23.352;2024-01-16T09:58:15;6.10;;;1.88;;
56830;SDS011;42713;42.676;23.352;2024-01-16T10:00:44;4.85;;;1.70;;
56830;SDS011;42713;42.676;23.352;2024-01-16T10:03:11;5.30;;;1.90;;
56830;SDS011;42713;42.676;23.352;2024-01-16T10:05:39;5.35;;;1.75;;
56830;SDS011;42713;42.676;23.352;2024-01-16T10:08:06;4.22;;;1.50;;
56830;SDS011;42713;42.676;23.352;2024-01-16T10:10:37;6.53;;;1.60;;
56830;SDS011;42713;42.676;23.352;2024-01-16T10:13:05;7.43;;;1.83;;
56830;SDS011;42713;42.676;23.352;2024-01-16T10:15:34;3.70;;;1.50;;
56830;SDS011;42713;42.676;23.352;2024-01-16T10:18:00;5.40;;;1.80;;
56830;SDS011;42713;42.676;23.352;2024-01-16T10:20:33;5.57;;;1.95;;
56830;SDS011;42713;42.676;23.352;2024-01-16T10:23:05;5.28;;;2.00;;
56830;SDS011;42713;42.676;23.352;2024-01-16T10:25:30;6.95;;;1.88;;
56830;SDS011;42713;42.676;23.352;2024-01-16T10:28:03;6.68;;;2.05;;
56830;SDS011;42713;42.676;23.352;2024-01-16T10:30:31;5.57;;;1.85;;
56830;SDS011;42713;42.676;23.352;2024-01-16T10:33:00;5.65;;;1.85;;
56830;SDS011;42713;42.676;23.352;2024-01-16T10:35:37;6.95;;;1.80;;
56830;SDS011;42713;42.676;23.352;2024-01-16T10:38:03;4.60;;;1.73;;
56830;SDS011;42713;42.676;23.352;2024-01-16T10:40:29;5.10;;;1.58;;
56830;SDS011;42713;42.676;23.352;2024-01-16T10:42:59;2.85;;;1.38;;
56830;SDS011;42713;42.676;23.352;2024-01-16T10:45:26;5.43;;;1.92;;
56830;SDS011;42713;42.676;23.352;2024-01-16T10:48:02;6.18;;;1.83;;
56830;SDS011;42713;42.676;23.352;2024-01-16T10:50:29;5.38;;;1.90;;
56830;SDS011;42713;42.676;23.352;2024-01-16T10:52:55;5.07;;;1.80;;
56830;SDS011;42713;42.676;23.352;2024-01-16T10:55:23;5.78;;;1.75;;
56830;SDS011;42713;42.676;23.352;2024-01-16T10:57:49;4.60;;;1.73;;
56830;SDS011;42713;42.676;23.352;2024-01-16T11:00:19;4.65;;;1.80;;
56830;SDS011;42713;42.676;23.352;2024-01-16T11:02:51;4.00;;;1.55;;
56830;SDS011;42713;42.676;23.352;2024-01-16T11:05:25;4.43;;;1.77;;
56830;SDS011;42713;42.676;23.352;2024-01-16T11:07:53;3.53;;;1.52;;
56830;SDS011;42713;42.676;23.352;2024-01-16T11:10:21;3.95;;;1.73;;
56830;SDS011;42713;42.676;23.352;2024-01-16T11:12:50;5.80;;;2.13;;
56830;SDS011;42713;42.676;23.352;2024-01-16T11:15:17;5.65;;;1.92;;
56830;SDS011;42713;42.676;23.352;2024-01-16T11:17:46;5.28;;;1.80;;
56830;SDS011;42713;42.676;23.352;2024-01-16T11:20:12;7.95;;;1.90;;
56830;SDS011;42713;42.676;23.352;2024-01-16T11:22:41;5.47;;;1.48;;
56830;SDS011;42713;42.676;23.352;2024-01-16T11:25:12;7.05;;;1.70;;
56830;SDS011;42713;42.676;23.352;2024-01-16T11:27:41;4.88;;;1.63;;
56830;SDS011;42713;42.676;23.352;2024-01-16T11:30:08;4.20;;;1.60;;
56830;SDS011;42713;42.676;23.352;2024-01-16T11:32:36;7.00;;;1.85;;
56830;SDS011;42713;42.676;23.352;2024-01-16T11:35:09;4.90;;;2.00;;
56830;SDS011;42713;42.676;23.352;2024-01-16T11:37:36;4.50;;;1.98;;
56830;SDS011;42713;42.676;23.352;2024-01-16T11:42:53;5.68;;;2.00;;
56830;SDS011;42713;42.676;23.352;2024-01-16T11:48:13;6.03;;;2.20;;
56830;SDS011;42713;42.676;23.352;2024-01-16T11:50:41;5.70;;;1.92;;
56830;SDS011;42713;42.676;23.352;2024-01-16T11:53:08;6.97;;;2.40;;
56830;SDS011;42713;42.676;23.352;2024-01-16T12:01:38;12.93;;;2.60;;
56830;SDS011;42713;42.676;23.352;2024-01-16T12:04:08;7.70;;;2.20;;
56830;SDS011;42713;42.676;23.352;2024-01-16T12:06:37;5.60;;;2.10;;
56830;SDS011;42713;42.676;23.352;2024-01-16T12:09:12;5.88;;;2.15;;
56830;SDS011;42713;42.676;23.352;2024-01-16T12:11:42;5.03;;;1.85;;
56830;SDS011;42713;42.676;23.352;2024-01-16T12:14:14;6.18;;;2.28;;
56830;SDS011;42713;42.676;23.352;2024-01-16T12:16:40;6.25;;;2.08;;
56830;SDS011;42713;42.676;23.352;2024-01-16T12:19:09;8.35;;;2.50;;
56830;SDS011;42713;42.676;23.352;2024-01-16T12:21:46;9.63;;;2.42;;
56830;SDS011;42713;42.676;23.352;2024-01-16T12:24:30;6.15;;;2.20;;
56830;SDS011;42713;42.676;23.352;2024-01-16T12:26:59;6.95;;;2.30;;
56830;SDS011;42713;42.676;23.352;2024-01-16T12:29:29;9.02;;;2.60;;
56830;SDS011;42713;42.676;23.352;2024-01-16T12:32:09;9.18;;;2.38;;
56830;SDS011;42713;42.676;23.352;2024-01-16T12:34:43;7.18;;;2.17;;
56830;SDS011;42713;42.676;23.352;2024-01-16T12:37:11;8.57;;;2.97;;
56830;SDS011;42713;42.676;23.352;2024-01-16T12:39:37;5.65;;;2.35;;
56830;SDS011;42713;42.676;23.352;2024-01-16T12:42:09;5.45;;;2.28;;
56830;SDS011;42713;42.676;23.352;2024-01-16T12:44:36;8.15;;;2.60;;
56830;SDS011;42713;42.676;23.352;2024-01-16T12:47:03;6.93;;;2.45;;
56830;SDS011;42713;42.676;23.352;2024-01-16T12:49:29;6.85;;;2.65;;
56830;SDS011;42713;42.676;23.352;2024-01-16T12:54:58;5.30;;;2.10;;
56830;SDS011;42713;42.676;23.352;2024-01-16T12:57:27;5.22;;;1.98;;
56830;SDS011;42713;42.676;23.352;2024-01-16T12:59:58;5.75;;;1.90;;
56830;SDS011;42713;42.676;23.352;2024-01-16T13:02:26;6.05;;;2.70;;
56830;SDS011;42713;42.676;23.352;2024-01-16T13:04:59;4.82;;;2.10;;
56830;SDS011;42713;42.676;23.352;2024-01-16T13:07:28;8.90;;;2.38;;
56830;SDS011;42713;42.676;23.352;2024-01-16T13:10:06;3.55;;;1.33;;
56830;SDS011;42713;42.676;23.352;2024-01-16T13:12:36;8.98;;;2.47;;
56830;SDS011;42713;42.676;23.352;2024-01-16T13:15:07;13.40;;;3.53;;
56830;SDS011;42713;42.676;23.352;2024-01-16T13:17:35;7.20;;;2.25;;
56830;SDS011;42713;42.676;23.352;2024-01-16T13:20:04;10.27;;;2.85;;
56830;SDS011;42713;42.676;23.352;2024-01-16T13:22:35;6.25;;;2.22;;
56830;SDS011;42713;42.676;23.352;2024-01-16T13:25:06;5.65;;;2.47;;
56830;SDS011;42713;42.676;23.352;2024-01-16T13:27:37;10.57;;;2.55;;
56830;SDS011;42713;42.676;23.352;2024-01-16T13:30:03;9.23;;;2.60;;
56830;SDS011;42713;42.676;23.352;2024-01-16T13:32:32;5.43;;;2.30;;
56830;SDS011;42713;42.676;23.352;2024-01-16T13:35:00;6.65;;;2.42;;
56830;SDS011;42713;42.676;23.352;2024-01-16T13:37:25;6.10;;;2.22;;
56830;SDS011;42713;42.676;23.352;2024-01-16T13:39:51;7.80;;;2.58;;
56830;SDS011;42713;42.676;23.352;2024-01-16T13:42:19;9.05;;;2.25;;
56830;SDS011;42713;42.676;23.352;2024-01-16T13:44:45;4.85;;;1.80;;
56830;SDS011;42713;42.676;23.352;2024-01-16T13:47:11;5.63;;;2.45;;
56830;SDS011;42713;42.676;23.352;2024-01-16T13:49:37;5.55;;;2.20;;
56830;SDS011;42713;42.676;23.352;2024-01-16T13:52:08;7.88;;;2.88;;
56830;SDS011;42713;42.676;23.352;2024-01-16T13:54:36;7.53;;;2.33;;
56830;SDS011;42713;42.676;23.352;2024-01-16T13:57:11;9.43;;;3.20;;
56830;SDS011;42713;42.676;23.352;2024-01-16T13:59:36;10.35;;;2.65;;
56830;SDS011;42713;42.676;23.352;2024-01-16T14:02:03;7.97;;;2.58;;
56830;SDS011;42713;42.676;23.352;2024-01-16T14:04:38;7.47;;;3.00;;
56830;SDS011;42713;42.676;23.352;2024-01-16T14:07:06;6.75;;;2.55;;
56830;SDS011;42713;42.676;23.352;2024-01-16T14:09:36;8.75;;;2.40;;
56830;SDS011;42713;42.676;23.352;2024-01-16T14:12:03;8.45;;;2.80;;
56830;SDS011;42713;42.676;23.352;2024-01-16T14:14:29;9.73;;;2.58;;
56830;SDS011;42713;42.676;23.352;2024-01-16T14:16:55;9.30;;;2.35;;
56830;SDS011;42713;42.676;23.352;2024-01-16T14:19:22;5.22;;;1.85;;
56830;SDS011;42713;42.676;23.352;2024-01-16T14:21:49;6.82;;;1.67;;
56830;SDS011;42713;42.676;23.352;2024-01-16T14:24:24;5.18;;;2.00;;
56830;SDS011;42713;42.676;23.352;2024-01-16T14:26:52;8.02;;;2.22;;
56830;SDS011;42713;42.676;23.352;2024-01-16T14:29:20;6.07;;;1.95;;
56830;SDS011;42713;42.676;23.352;2024-01-16T14:31:46;6.22;;;2.22;;
56830;SDS011;42713;42.676;23.352;2024-01-16T14:34:14;6.53;;;2.25;;
56830;SDS011;42713;42.676;23.352;2024-01-16T14:36:40;6.55;;;1.98;;
56830;SDS011;42713;42.676;23.352;2024-01-16T14:39:06;6.50;;;2.20;;
56830;SDS011;42713;42.676;23.352;2024-01-16T14:41:41;6.57;;;2.70;;
56830;SDS011;42713;42.676;23.352;2024-01-16T14:44:08;8.73;;;3.80;;
56830;SDS011;42713;42.676;23.352;2024-01-16T14:46:37;5.25;;;2.10;;